sensor_id;sensor_type;location;lat;lon;timestamp;temperature;humidity
39325;DHT22;25037;49.488;9.900;2022-08-19T00:01:21;24.30;59.10
39325;DHT22;25037;49.488;9.900;2022-08-19T00:03:48;24.30;59.10
39325;DHT22;25037;49.488;9.900;2022-08-19T00:06:14;24.20;59.20
39325;DHT22;25037;49.488;9.900;2022-08-19T00:08:40;24.20;59.30
39325;DHT22;25037;49.488;9.900;2022-08-19T00:11:06;24.20;59.30
39325;DHT22;25037;49.488;9.900;2022-08-19T00:13:33;24.20;59.40
39325;DHT22;25037;49.488;9.900;2022-08-19T00:15:59;24.20;59.40
39325;DHT22;25037;49.488;9.900;2022-08-19T00:18:25;24.10;59.50
39325;DHT22;25037;49.488;9.900;2022-08-19T00:20:51;24.10;59.50
39325;DHT22;25037;49.488;9.900;2022-08-19T00:23:16;24.00;59.50
39325;DHT22;25037;49.488;9.900;2022-08-19T00:25:42;23.90;59.50
39325;DHT22;25037;49.488;9.900;2022-08-19T00:28:07;23.90;59.60
39325;DHT22;25037;49.488;9.900;2022-08-19T00:30:33;23.80;59.80
39325;DHT22;25037;49.488;9.900;2022-08-19T00:32:59;23.80;59.90
39325;DHT22;25037;49.488;9.900;2022-08-19T00:35:24;23.70;60.10
39325;DHT22;25037;49.488;9.900;2022-08-19T00:37:52;23.70;60.10
39325;DHT22;25037;49.488;9.900;2022-08-19T00:40:19;23.60;60.30
39325;DHT22;25037;49.488;9.900;2022-08-19T00:42:45;23.60;60.40
39325;DHT22;25037;49.488;9.900;2022-08-19T00:45:17;23.50;60.40
39325;DHT22;25037;49.488;9.900;2022-08-19T00:47:44;23.50;60.50
39325;DHT22;25037;49.488;9.900;2022-08-19T00:50:12;23.50;60.50
39325;DHT22;25037;49.488;9.900;2022-08-19T00:52:42;23.50;60.70
39325;DHT22;25037;49.488;9.900;2022-08-19T00:55:13;23.40;60.90
39325;DHT22;25037;49.488;9.900;2022-08-19T00:57:42;23.30;61.00
39325;DHT22;25037;49.488;9.900;2022-08-19T01:00:12;23.30;61.10
39325;DHT22;25037;49.488;9.900;2022-08-19T01:02:40;23.20;61.20
39325;DHT22;25037;49.488;9.900;2022-08-19T01:05:09;23.20;61.30
39325;DHT22;25037;49.488;9.900;2022-08-19T01:07:37;23.20;61.40
39325;DHT22;25037;49.488;9.900;2022-08-19T01:10:05;23.10;61.50
39325;DHT22;25037;49.488;9.900;2022-08-19T01:12:31;23.10;61.60
39325;DHT22;25037;49.488;9.900;2022-08-19T01:14:58;23.00;61.60
39325;DHT22;25037;49.488;9.900;2022-08-19T01:17:24;23.00;61.70
39325;DHT22;25037;49.488;9.900;2022-08-19T01:19:50;23.00;61.80
39325;DHT22;25037;49.488;9.900;2022-08-19T01:22:52;23.00;61.90
39325;DHT22;25037;49.488;9.900;2022-08-19T01:25:22;23.00;61.90
39325;DHT22;25037;49.488;9.900;2022-08-19T01:27:49;22.90;62.00
39325;DHT22;25037;49.488;9.900;2022-08-19T01:30:18;22.90;62.10
39325;DHT22;25037;49.488;9.900;2022-08-19T01:32:44;22.80;62.20
39325;DHT22;25037;49.488;9.900;2022-08-19T01:35:11;22.80;62.20
39325;DHT22;25037;49.488;9.900;2022-08-19T01:38:00;22.80;62.30
39325;DHT22;25037;49.488;9.900;2022-08-19T01:40:31;22.80;62.40
39325;DHT22;25037;49.488;9.900;2022-08-19T01:42:57;22.80;62.30
39325;DHT22;25037;49.488;9.900;2022-08-19T01:45:25;22.80;62.30
39325;DHT22;25037;49.488;9.900;2022-08-19T01:47:52;22.80;62.40
39325;DHT22;25037;49.488;9.900;2022-08-19T01:50:17;22.80;62.40
39325;DHT22;25037;49.488;9.900;2022-08-19T01:52:44;22.80;62.40
39325;DHT22;25037;49.488;9.900;2022-08-19T01:55:14;22.80;62.40
39325;DHT22;25037;49.488;9.900;2022-08-19T01:57:44;22.80;62.50
39325;DHT22;25037;49.488;9.900;2022-08-19T02:00:12;22.70;62.60
39325;DHT22;25037;49.488;9.900;2022-08-19T02:02:39;22.70;62.60
39325;DHT22;25037;49.488;9.900;2022-08-19T02:05:05;22.70;62.70
39325;DHT22;25037;49.488;9.900;2022-08-19T02:07:32;22.70;62.70
39325;DHT22;25037;49.488;9.900;2022-08-19T02:09:58;22.60;62.80
39325;DHT22;25037;49.488;9.900;2022-08-19T02:12:23;22.60;62.80
39325;DHT22;25037;49.488;9.900;2022-08-19T02:14:49;22.70;62.80
39325;DHT22;25037;49.488;9.900;2022-08-19T02:17:14;22.60;62.90
39325;DHT22;25037;49.488;9.900;2022-08-19T02:19:40;22.60;62.90
39325;DHT22;25037;49.488;9.900;2022-08-19T02:22:06;22.60;62.90
39325;DHT22;25037;49.488;9.900;2022-08-19T02:24:31;22.60;63.00
39325;DHT22;25037;49.488;9.900;2022-08-19T02:26:57;22.60;63.00
39325;DHT22;25037;49.488;9.900;2022-08-19T02:29:24;22.60;63.10
39325;DHT22;25037;49.488;9.900;2022-08-19T02:31:49;22.60;63.20
39325;DHT22;25037;49.488;9.900;2022-08-19T02:34:16;22.50;63.20
39325;DHT22;25037;49.488;9.900;2022-08-19T02:36:42;22.50;63.20
39325;DHT22;25037;49.488;9.900;2022-08-19T02:39:07;22.50;63.20
39325;DHT22;25037;49.488;9.900;2022-08-19T02:41:33;22.50;63.30
39325;DHT22;25037;49.488;9.900;2022-08-19T02:44:01;22.50;63.30
39325;DHT22;25037;49.488;9.900;2022-08-19T02:46:31;22.40;63.20
39325;DHT22;25037;49.488;9.900;2022-08-19T02:49:03;22.40;63.30
39325;DHT22;25037;49.488;9.900;2022-08-19T02:51:37;22.40;63.40
39325;DHT22;25037;49.488;9.900;2022-08-19T02:54:04;22.40;63.40
39325;DHT22;25037;49.488;9.900;2022-08-19T02:56:30;22.30;63.30
39325;DHT22;25037;49.488;9.900;2022-08-19T02:58:56;22.40;63.50
39325;DHT22;25037;49.488;9.900;2022-08-19T03:01:26;22.40;63.50
39325;DHT22;25037;49.488;9.900;2022-08-19T03:03:53;22.30;63.50
39325;DHT22;25037;49.488;9.900;2022-08-19T03:06:19;22.30;63.50
39325;DHT22;25037;49.488;9.900;2022-08-19T03:08:46;22.30;63.50
39325;DHT22;25037;49.488;9.900;2022-08-19T03:11:14;22.30;63.60
39325;DHT22;25037;49.488;9.900;2022-08-19T03:13:40;22.30;63.60
39325;DHT22;25037;49.488;9.900;2022-08-19T03:16:06;22.30;63.60
39325;DHT22;25037;49.488;9.900;2022-08-19T03:18:31;22.30;63.60
39325;DHT22;25037;49.488;9.900;2022-08-19T03:20:57;22.30;63.60
39325;DHT22;25037;49.488;9.900;2022-08-19T03:23:23;22.30;63.60
39325;DHT22;25037;49.488;9.900;2022-08-19T03:25:50;22.30;63.60
39325;DHT22;25037;49.488;9.900;2022-08-19T03:28:16;22.30;63.60
39325;DHT22;25037;49.488;9.900;2022-08-19T03:30:44;22.30;63.60
39325;DHT22;25037;49.488;9.900;2022-08-19T03:33:22;22.30;63.60
39325;DHT22;25037;49.488;9.900;2022-08-19T03:35:58;22.30;63.60
39325;DHT22;25037;49.488;9.900;2022-08-19T03:38:24;22.30;63.60
39325;DHT22;25037;49.488;9.900;2022-08-19T03:40:49;22.30;63.60
39325;DHT22;25037;49.488;9.900;2022-08-19T03:43:15;22.30;63.60
39325;DHT22;25037;49.488;9.900;2022-08-19T03:45:44;22.30;63.70
39325;DHT22;25037;49.488;9.900;2022-08-19T03:48:09;22.30;63.70
39325;DHT22;25037;49.488;9.900;2022-08-19T03:50:39;22.30;63.80
39325;DHT22;25037;49.488;9.900;2022-08-19T03:53:04;22.20;63.90
39325;DHT22;25037;49.488;9.900;2022-08-19T03:55:31;22.20;63.80
39325;DHT22;25037;49.488;9.900;2022-08-19T03:57:57;22.20;63.80
39325;DHT22;25037;49.488;9.900;2022-08-19T04:00:22;22.20;63.80
39325;DHT22;25037;49.488;9.900;2022-08-19T04:02:48;22.20;63.90
39325;DHT22;25037;49.488;9.900;2022-08-19T04:05:13;22.20;63.90
39325;DHT22;25037;49.488;9.900;2022-08-19T04:07:40;22.10;63.90
39325;DHT22;25037;49.488;9.900;2022-08-19T04:10:06;22.20;64.00
39325;DHT22;25037;49.488;9.900;2022-08-19T04:12:31;22.20;64.00
39325;DHT22;25037;49.488;9.900;2022-08-19T04:14:57;22.20;64.00
39325;DHT22;25037;49.488;9.900;2022-08-19T04:17:23;22.10;64.00
39325;DHT22;25037;49.488;9.900;2022-08-19T04:19:49;22.10;64.10
39325;DHT22;25037;49.488;9.900;2022-08-19T04:22:14;22.10;64.20
39325;DHT22;25037;49.488;9.900;2022-08-19T04:24:40;22.10;64.20
39325;DHT22;25037;49.488;9.900;2022-08-19T04:27:05;22.10;64.30
39325;DHT22;25037;49.488;9.900;2022-08-19T04:29:32;22.10;64.30
39325;DHT22;25037;49.488;9.900;2022-08-19T04:31:58;22.10;64.40
39325;DHT22;25037;49.488;9.900;2022-08-19T04:34:27;22.10;64.50
39325;DHT22;25037;49.488;9.900;2022-08-19T04:36:55;22.10;64.40
39325;DHT22;25037;49.488;9.900;2022-08-19T04:39:24;22.10;64.40
39325;DHT22;25037;49.488;9.900;2022-08-19T04:42:11;22.20;64.40
39325;DHT22;25037;49.488;9.900;2022-08-19T04:44:55;22.20;64.30
39325;DHT22;25037;49.488;9.900;2022-08-19T04:47:20;22.20;64.20
39325;DHT22;25037;49.488;9.900;2022-08-19T04:49:46;22.20;64.10
39325;DHT22;25037;49.488;9.900;2022-08-19T04:52:12;22.30;64.00
39325;DHT22;25037;49.488;9.900;2022-08-19T04:54:37;22.30;63.90
39325;DHT22;25037;49.488;9.900;2022-08-19T04:57:03;22.30;63.70
39325;DHT22;25037;49.488;9.900;2022-08-19T04:59:31;22.50;63.50
39325;DHT22;25037;49.488;9.900;2022-08-19T05:01:58;22.60;63.50
39325;DHT22;25037;49.488;9.900;2022-08-19T05:04:24;22.60;63.30
39325;DHT22;25037;49.488;9.900;2022-08-19T05:06:50;22.70;63.20
39325;DHT22;25037;49.488;9.900;2022-08-19T05:09:17;22.70;63.10
39325;DHT22;25037;49.488;9.900;2022-08-19T05:11:44;22.80;63.00
39325;DHT22;25037;49.488;9.900;2022-08-19T05:14:10;22.80;62.80
39325;DHT22;25037;49.488;9.900;2022-08-19T05:16:37;22.90;62.70
39325;DHT22;25037;49.488;9.900;2022-08-19T05:19:03;23.00;62.50
39325;DHT22;25037;49.488;9.900;2022-08-19T05:21:47;23.00;62.30
39325;DHT22;25037;49.488;9.900;2022-08-19T05:24:31;23.10;62.20
39325;DHT22;25037;49.488;9.900;2022-08-19T05:27:00;23.10;62.10
39325;DHT22;25037;49.488;9.900;2022-08-19T05:29:28;23.20;62.00
39325;DHT22;25037;49.488;9.900;2022-08-19T05:31:54;23.20;62.00
39325;DHT22;25037;49.488;9.900;2022-08-19T05:34:22;23.20;61.90
39325;DHT22;25037;49.488;9.900;2022-08-19T05:36:55;23.20;61.80
39325;DHT22;25037;49.488;9.900;2022-08-19T05:39:24;23.20;61.80
39325;DHT22;25037;49.488;9.900;2022-08-19T05:41:53;23.20;61.80
39325;DHT22;25037;49.488;9.900;2022-08-19T05:44:20;23.30;61.80
39325;DHT22;25037;49.488;9.900;2022-08-19T05:46:47;23.20;61.70
39325;DHT22;25037;49.488;9.900;2022-08-19T05:49:14;23.30;61.50
39325;DHT22;25037;49.488;9.900;2022-08-19T05:51:41;23.30;61.50
39325;DHT22;25037;49.488;9.900;2022-08-19T05:54:07;23.30;61.50
39325;DHT22;25037;49.488;9.900;2022-08-19T05:56:34;23.40;61.40
39325;DHT22;25037;49.488;9.900;2022-08-19T05:59:04;23.40;61.40
39325;DHT22;25037;49.488;9.900;2022-08-19T06:01:33;23.40;61.40
39325;DHT22;25037;49.488;9.900;2022-08-19T06:04:00;23.30;61.40
39325;DHT22;25037;49.488;9.900;2022-08-19T06:06:25;23.40;61.50
39325;DHT22;25037;49.488;9.900;2022-08-19T06:08:51;23.30;61.50
39325;DHT22;25037;49.488;9.900;2022-08-19T06:11:23;23.40;61.50
39325;DHT22;25037;49.488;9.900;2022-08-19T06:13:50;23.40;61.50
39325;DHT22;25037;49.488;9.900;2022-08-19T06:16:19;23.40;61.20
39325;DHT22;25037;49.488;9.900;2022-08-19T06:18:52;23.50;61.30
39325;DHT22;25037;49.488;9.900;2022-08-19T06:21:20;23.50;61.30
39325;DHT22;25037;49.488;9.900;2022-08-19T06:23:46;23.60;61.20
39325;DHT22;25037;49.488;9.900;2022-08-19T06:26:16;23.70;61.10
39325;DHT22;25037;49.488;9.900;2022-08-19T06:28:42;23.70;61.00
39325;DHT22;25037;49.488;9.900;2022-08-19T06:31:15;23.70;60.90
39325;DHT22;25037;49.488;9.900;2022-08-19T06:33:45;23.70;60.90
39325;DHT22;25037;49.488;9.900;2022-08-19T06:36:40;23.80;61.00
39325;DHT22;25037;49.488;9.900;2022-08-19T06:39:11;23.80;60.70
39325;DHT22;25037;49.488;9.900;2022-08-19T06:41:40;23.80;60.60
39325;DHT22;25037;49.488;9.900;2022-08-19T06:44:06;23.90;60.50
39325;DHT22;25037;49.488;9.900;2022-08-19T06:46:32;23.90;60.40
39325;DHT22;25037;49.488;9.900;2022-08-19T06:48:58;23.90;60.30
39325;DHT22;25037;49.488;9.900;2022-08-19T06:51:24;24.00;60.20
39325;DHT22;25037;49.488;9.900;2022-08-19T06:53:52;23.90;60.20
39325;DHT22;25037;49.488;9.900;2022-08-19T06:56:21;24.00;60.10
39325;DHT22;25037;49.488;9.900;2022-08-19T06:58:48;24.00;60.00
39325;DHT22;25037;49.488;9.900;2022-08-19T07:01:19;24.00;59.80
39325;DHT22;25037;49.488;9.900;2022-08-19T07:03:45;24.10;59.80
39325;DHT22;25037;49.488;9.900;2022-08-19T07:06:14;24.10;59.70
39325;DHT22;25037;49.488;9.900;2022-08-19T07:08:43;24.10;59.70
39325;DHT22;25037;49.488;9.900;2022-08-19T07:11:11;24.20;59.60
39325;DHT22;25037;49.488;9.900;2022-08-19T07:13:38;24.20;59.50
39325;DHT22;25037;49.488;9.900;2022-08-19T07:16:09;24.20;59.50
39325;DHT22;25037;49.488;9.900;2022-08-19T07:18:36;24.20;59.50
39325;DHT22;25037;49.488;9.900;2022-08-19T07:21:04;24.20;59.40
39325;DHT22;25037;49.488;9.900;2022-08-19T07:23:30;24.20;59.40
39325;DHT22;25037;49.488;9.900;2022-08-19T07:25:55;24.30;59.40
39325;DHT22;25037;49.488;9.900;2022-08-19T07:28:22;24.30;59.30
39325;DHT22;25037;49.488;9.900;2022-08-19T07:30:48;24.30;59.30
39325;DHT22;25037;49.488;9.900;2022-08-19T07:33:15;24.40;59.20
39325;DHT22;25037;49.488;9.900;2022-08-19T07:35:40;24.30;59.20
39325;DHT22;25037;49.488;9.900;2022-08-19T07:38:06;24.40;59.10
39325;DHT22;25037;49.488;9.900;2022-08-19T07:40:32;24.40;59.10
39325;DHT22;25037;49.488;9.900;2022-08-19T07:42:58;24.40;59.10
39325;DHT22;25037;49.488;9.900;2022-08-19T07:45:23;24.40;59.10
39325;DHT22;25037;49.488;9.900;2022-08-19T07:47:49;24.50;59.10
39325;DHT22;25037;49.488;9.900;2022-08-19T07:50:16;24.50;59.10
39325;DHT22;25037;49.488;9.900;2022-08-19T07:52:43;24.50;59.10
39325;DHT22;25037;49.488;9.900;2022-08-19T07:55:10;24.60;58.90
39325;DHT22;25037;49.488;9.900;2022-08-19T07:57:35;24.60;58.90
39325;DHT22;25037;49.488;9.900;2022-08-19T08:00:02;24.60;58.90
39325;DHT22;25037;49.488;9.900;2022-08-19T08:02:28;24.60;58.90
39325;DHT22;25037;49.488;9.900;2022-08-19T08:04:54;24.60;58.90
39325;DHT22;25037;49.488;9.900;2022-08-19T08:07:38;24.60;59.00
39325;DHT22;25037;49.488;9.900;2022-08-19T08:10:22;24.60;59.00
39325;DHT22;25037;49.488;9.900;2022-08-19T08:12:48;24.60;58.90
39325;DHT22;25037;49.488;9.900;2022-08-19T08:15:15;24.70;59.00
39325;DHT22;25037;49.488;9.900;2022-08-19T08:17:42;24.70;58.90
39325;DHT22;25037;49.488;9.900;2022-08-19T08:20:08;24.70;58.90
39325;DHT22;25037;49.488;9.900;2022-08-19T08:22:34;24.70;58.70
39325;DHT22;25037;49.488;9.900;2022-08-19T08:25:21;24.80;58.60
39325;DHT22;25037;49.488;9.900;2022-08-19T08:27:48;24.90;58.60
39325;DHT22;25037;49.488;9.900;2022-08-19T08:30:23;24.80;58.50
39325;DHT22;25037;49.488;9.900;2022-08-19T08:32:50;24.90;58.50
39325;DHT22;25037;49.488;9.900;2022-08-19T08:35:18;24.90;58.50
39325;DHT22;25037;49.488;9.900;2022-08-19T08:37:45;24.90;58.40
39325;DHT22;25037;49.488;9.900;2022-08-19T08:40:31;25.00;58.40
39325;DHT22;25037;49.488;9.900;2022-08-19T08:43:23;25.00;58.40
39325;DHT22;25037;49.488;9.900;2022-08-19T08:46:00;24.90;58.30
39325;DHT22;25037;49.488;9.900;2022-08-19T08:48:39;25.00;58.40
39325;DHT22;25037;49.488;9.900;2022-08-19T08:51:11;25.00;58.30
39325;DHT22;25037;49.488;9.900;2022-08-19T08:53:40;25.10;58.30
39325;DHT22;25037;49.488;9.900;2022-08-19T08:56:08;25.10;58.20
39325;DHT22;25037;49.488;9.900;2022-08-19T08:59:02;25.20;58.10
39325;DHT22;25037;49.488;9.900;2022-08-19T09:01:32;25.20;57.90
39325;DHT22;25037;49.488;9.900;2022-08-19T09:03:58;25.30;57.70
39325;DHT22;25037;49.488;9.900;2022-08-19T09:06:39;25.40;57.60
39325;DHT22;25037;49.488;9.900;2022-08-19T09:14:50;25.70;57.20
39325;DHT22;25037;49.488;9.900;2022-08-19T09:17:19;25.70;57.10
39325;DHT22;25037;49.488;9.900;2022-08-19T09:19:51;25.70;57.00
39325;DHT22;25037;49.488;9.900;2022-08-19T09:22:17;25.80;56.90
39325;DHT22;25037;49.488;9.900;2022-08-19T09:24:42;25.90;56.70
39325;DHT22;25037;49.488;9.900;2022-08-19T09:27:08;26.00;56.50
39325;DHT22;25037;49.488;9.900;2022-08-19T09:29:33;26.10;56.30
39325;DHT22;25037;49.488;9.900;2022-08-19T09:31:59;26.30;55.90
39325;DHT22;25037;49.488;9.900;2022-08-19T09:34:24;26.30;55.70
39325;DHT22;25037;49.488;9.900;2022-08-19T09:36:50;26.30;55.50
39325;DHT22;25037;49.488;9.900;2022-08-19T09:39:21;26.30;55.50
39325;DHT22;25037;49.488;9.900;2022-08-19T09:41:46;26.30;55.60
39325;DHT22;25037;49.488;9.900;2022-08-19T09:44:12;26.30;55.50
39325;DHT22;25037;49.488;9.900;2022-08-19T09:46:38;26.30;55.40
39325;DHT22;25037;49.488;9.900;2022-08-19T09:49:04;26.30;55.40
39325;DHT22;25037;49.488;9.900;2022-08-19T09:51:31;26.30;55.40
39325;DHT22;25037;49.488;9.900;2022-08-19T09:54:00;26.30;55.30
39325;DHT22;25037;49.488;9.900;2022-08-19T09:56:26;26.40;55.20
39325;DHT22;25037;49.488;9.900;2022-08-19T09:58:52;26.50;55.10
39325;DHT22;25037;49.488;9.900;2022-08-19T10:01:21;26.60;54.90
39325;DHT22;25037;49.488;9.900;2022-08-19T10:03:53;26.70;54.70
39325;DHT22;25037;49.488;9.900;2022-08-19T10:06:21;26.90;54.50
39325;DHT22;25037;49.488;9.900;2022-08-19T10:08:47;26.80;54.40
39325;DHT22;25037;49.488;9.900;2022-08-19T10:11:12;26.80;54.40
39325;DHT22;25037;49.488;9.900;2022-08-19T10:13:42;26.70;54.50
39325;DHT22;25037;49.488;9.900;2022-08-19T10:16:11;26.70;54.40
39325;DHT22;25037;49.488;9.900;2022-08-19T10:18:38;26.60;54.40
39325;DHT22;25037;49.488;9.900;2022-08-19T10:21:09;26.60;54.50
39325;DHT22;25037;49.488;9.900;2022-08-19T10:23:40;26.60;54.60
39325;DHT22;25037;49.488;9.900;2022-08-19T10:26:07;26.50;54.70
39325;DHT22;25037;49.488;9.900;2022-08-19T10:28:34;26.40;54.80
39325;DHT22;25037;49.488;9.900;2022-08-19T10:31:14;26.40;54.90
39325;DHT22;25037;49.488;9.900;2022-08-19T10:33:41;26.30;55.10
39325;DHT22;25037;49.488;9.900;2022-08-19T10:36:09;26.30;55.10
39325;DHT22;25037;49.488;9.900;2022-08-19T10:38:36;26.40;55.10
39325;DHT22;25037;49.488;9.900;2022-08-19T10:41:11;26.40;55.00
39325;DHT22;25037;49.488;9.900;2022-08-19T10:43:36;26.40;54.90
39325;DHT22;25037;49.488;9.900;2022-08-19T10:46:04;26.30;55.00
39325;DHT22;25037;49.488;9.900;2022-08-19T10:48:31;26.30;55.00
39325;DHT22;25037;49.488;9.900;2022-08-19T10:50:57;26.50;54.90
39325;DHT22;25037;49.488;9.900;2022-08-19T10:53:42;26.70;54.70
39325;DHT22;25037;49.488;9.900;2022-08-19T10:56:07;26.80;54.30
39325;DHT22;25037;49.488;9.900;2022-08-19T10:58:51;26.80;54.30
39325;DHT22;25037;49.488;9.900;2022-08-19T11:01:17;27.00;54.10
39325;DHT22;25037;49.488;9.900;2022-08-19T11:03:43;26.90;54.10
39325;DHT22;25037;49.488;9.900;2022-08-19T11:06:10;27.00;54.10
39325;DHT22;25037;49.488;9.900;2022-08-19T11:08:36;27.00;53.80
39325;DHT22;25037;49.488;9.900;2022-08-19T11:11:06;27.20;53.30
39325;DHT22;25037;49.488;9.900;2022-08-19T11:13:35;27.20;52.90
39325;DHT22;25037;49.488;9.900;2022-08-19T11:16:05;27.10;52.80
39325;DHT22;25037;49.488;9.900;2022-08-19T11:18:32;27.10;52.60
39325;DHT22;25037;49.488;9.900;2022-08-19T11:21:19;27.10;52.60
39325;DHT22;25037;49.488;9.900;2022-08-19T11:23:47;27.10;52.50
39325;DHT22;25037;49.488;9.900;2022-08-19T11:26:14;27.10;52.50
39325;DHT22;25037;49.488;9.900;2022-08-19T11:28:40;27.10;52.20
39325;DHT22;25037;49.488;9.900;2022-08-19T11:31:15;27.20;52.40
39325;DHT22;25037;49.488;9.900;2022-08-19T11:33:41;27.20;52.40
39325;DHT22;25037;49.488;9.900;2022-08-19T11:36:07;27.20;52.30
39325;DHT22;25037;49.488;9.900;2022-08-19T11:38:34;27.30;52.20
39325;DHT22;25037;49.488;9.900;2022-08-19T11:41:03;27.30;51.70
39325;DHT22;25037;49.488;9.900;2022-08-19T11:43:29;27.40;51.30
39325;DHT22;25037;49.488;9.900;2022-08-19T11:45:55;27.30;51.20
39325;DHT22;25037;49.488;9.900;2022-08-19T11:48:22;27.30;51.30
39325;DHT22;25037;49.488;9.900;2022-08-19T11:50:49;27.20;51.40
39325;DHT22;25037;49.488;9.900;2022-08-19T11:53:15;27.20;51.40
39325;DHT22;25037;49.488;9.900;2022-08-19T11:55:41;27.20;51.20
39325;DHT22;25037;49.488;9.900;2022-08-19T11:58:07;27.10;50.90
39325;DHT22;25037;49.488;9.900;2022-08-19T12:00:34;27.10;50.70
39325;DHT22;25037;49.488;9.900;2022-08-19T12:03:02;27.00;50.50
39325;DHT22;25037;49.488;9.900;2022-08-19T12:05:27;27.00;50.00
39325;DHT22;25037;49.488;9.900;2022-08-19T12:07:53;27.00;49.80
39325;DHT22;25037;49.488;9.900;2022-08-19T12:10:20;27.00;49.50
39325;DHT22;25037;49.488;9.900;2022-08-19T12:12:46;27.00;49.20
39325;DHT22;25037;49.488;9.900;2022-08-19T12:15:12;27.00;49.00
39325;DHT22;25037;49.488;9.900;2022-08-19T12:17:38;27.00;48.90
39325;DHT22;25037;49.488;9.900;2022-08-19T12:20:04;27.00;48.80
39325;DHT22;25037;49.488;9.900;2022-08-19T12:22:30;27.10;48.60
39325;DHT22;25037;49.488;9.900;2022-08-19T12:24:56;27.20;48.40
39325;DHT22;25037;49.488;9.900;2022-08-19T12:27:23;27.20;48.30
39325;DHT22;25037;49.488;9.900;2022-08-19T12:29:49;27.20;48.10
39325;DHT22;25037;49.488;9.900;2022-08-19T12:32:15;27.30;47.70
39325;DHT22;25037;49.488;9.900;2022-08-19T12:34:40;27.20;47.50
39325;DHT22;25037;49.488;9.900;2022-08-19T12:37:07;27.30;47.30
39325;DHT22;25037;49.488;9.900;2022-08-19T12:39:37;27.30;47.20
39325;DHT22;25037;49.488;9.900;2022-08-19T12:42:04;27.40;47.00
39325;DHT22;25037;49.488;9.900;2022-08-19T12:44:29;27.40;46.90
39325;DHT22;25037;49.488;9.900;2022-08-19T12:46:56;27.60;46.60
39325;DHT22;25037;49.488;9.900;2022-08-19T12:49:22;27.70;46.40
39325;DHT22;25037;49.488;9.900;2022-08-19T12:51:47;27.70;46.30
39325;DHT22;25037;49.488;9.900;2022-08-19T12:54:13;27.80;46.30
39325;DHT22;25037;49.488;9.900;2022-08-19T12:56:40;27.90;46.20
39325;DHT22;25037;49.488;9.900;2022-08-19T12:59:06;28.00;46.00
39325;DHT22;25037;49.488;9.900;2022-08-19T13:01:33;28.10;45.80
39325;DHT22;25037;49.488;9.900;2022-08-19T13:03:59;28.20;45.60
39325;DHT22;25037;49.488;9.900;2022-08-19T13:06:25;28.20;45.40
39325;DHT22;25037;49.488;9.900;2022-08-19T13:08:51;28.40;45.30
39325;DHT22;25037;49.488;9.900;2022-08-19T13:11:19;28.60;45.00
39325;DHT22;25037;49.488;9.900;2022-08-19T13:13:47;28.70;44.80
39325;DHT22;25037;49.488;9.900;2022-08-19T13:16:13;29.00;44.40
39325;DHT22;25037;49.488;9.900;2022-08-19T13:18:40;29.10;44.10
39325;DHT22;25037;49.488;9.900;2022-08-19T13:21:08;29.30;43.50
39325;DHT22;25037;49.488;9.900;2022-08-19T13:23:35;29.30;43.10
39325;DHT22;25037;49.488;9.900;2022-08-19T13:26:05;29.40;42.90
39325;DHT22;25037;49.488;9.900;2022-08-19T13:28:31;29.40;42.70
39325;DHT22;25037;49.488;9.900;2022-08-19T13:31:23;29.30;42.70
39325;DHT22;25037;49.488;9.900;2022-08-19T13:34:08;29.30;42.90
39325;DHT22;25037;49.488;9.900;2022-08-19T13:36:34;29.20;43.00
39325;DHT22;25037;49.488;9.900;2022-08-19T13:39:00;29.20;42.70
39325;DHT22;25037;49.488;9.900;2022-08-19T13:41:27;29.10;42.80
39325;DHT22;25037;49.488;9.900;2022-08-19T13:43:53;29.00;42.80
39325;DHT22;25037;49.488;9.900;2022-08-19T13:46:19;28.90;42.90
39325;DHT22;25037;49.488;9.900;2022-08-19T13:48:46;28.80;43.00
39325;DHT22;25037;49.488;9.900;2022-08-19T13:51:11;28.80;42.90
39325;DHT22;25037;49.488;9.900;2022-08-19T13:53:38;28.70;42.80
39325;DHT22;25037;49.488;9.900;2022-08-19T13:56:08;28.70;42.60
39325;DHT22;25037;49.488;9.900;2022-08-19T13:58:34;28.60;42.50
39325;DHT22;25037;49.488;9.900;2022-08-19T14:01:00;28.50;42.60
39325;DHT22;25037;49.488;9.900;2022-08-19T14:03:26;28.40;42.80
39325;DHT22;25037;49.488;9.900;2022-08-19T14:05:52;28.30;42.80
39325;DHT22;25037;49.488;9.900;2022-08-19T14:08:17;28.30;42.90
39325;DHT22;25037;49.488;9.900;2022-08-19T14:10:44;28.30;43.00
39325;DHT22;25037;49.488;9.900;2022-08-19T14:13:12;28.40;43.00
39325;DHT22;25037;49.488;9.900;2022-08-19T14:15:38;28.40;43.00
39325;DHT22;25037;49.488;9.900;2022-08-19T14:18:03;28.40;43.10
39325;DHT22;25037;49.488;9.900;2022-08-19T14:20:29;28.50;43.10
39325;DHT22;25037;49.488;9.900;2022-08-19T14:22:55;28.60;42.90
39325;DHT22;25037;49.488;9.900;2022-08-19T14:25:24;28.70;42.90
39325;DHT22;25037;49.488;9.900;2022-08-19T14:27:50;28.70;42.90
39325;DHT22;25037;49.488;9.900;2022-08-19T14:30:19;28.70;42.80
39325;DHT22;25037;49.488;9.900;2022-08-19T14:32:45;28.80;42.80
39325;DHT22;25037;49.488;9.900;2022-08-19T14:35:12;28.80;42.60
39325;DHT22;25037;49.488;9.900;2022-08-19T14:37:39;28.80;42.60
39325;DHT22;25037;49.488;9.900;2022-08-19T14:40:05;28.90;42.70
39325;DHT22;25037;49.488;9.900;2022-08-19T14:42:31;28.80;42.70
39325;DHT22;25037;49.488;9.900;2022-08-19T14:44:58;28.80;42.60
39325;DHT22;25037;49.488;9.900;2022-08-19T14:47:24;28.80;42.90
39325;DHT22;25037;49.488;9.900;2022-08-19T14:49:50;28.90;44.50
39325;DHT22;25037;49.488;9.900;2022-08-19T14:52:15;28.80;45.70
39325;DHT22;25037;49.488;9.900;2022-08-19T14:54:41;28.70;46.50
39325;DHT22;25037;49.488;9.900;2022-08-19T14:57:06;28.50;47.00
39325;DHT22;25037;49.488;9.900;2022-08-19T14:59:34;28.50;47.30
39325;DHT22;25037;49.488;9.900;2022-08-19T15:02:00;28.40;47.70
39325;DHT22;25037;49.488;9.900;2022-08-19T15:04:25;28.40;47.90
39325;DHT22;25037;49.488;9.900;2022-08-19T15:06:51;28.40;47.90
39325;DHT22;25037;49.488;9.900;2022-08-19T15:09:16;28.40;48.20
39325;DHT22;25037;49.488;9.900;2022-08-19T15:11:42;28.50;48.70
39325;DHT22;25037;49.488;9.900;2022-08-19T15:14:08;28.60;48.80
39325;DHT22;25037;49.488;9.900;2022-08-19T15:16:35;28.70;48.70
39325;DHT22;25037;49.488;9.900;2022-08-19T15:19:01;28.80;48.60
39325;DHT22;25037;49.488;9.900;2022-08-19T15:21:28;28.80;48.40
39325;DHT22;25037;49.488;9.900;2022-08-19T15:23:55;28.90;48.10
39325;DHT22;25037;49.488;9.900;2022-08-19T15:26:21;29.00;47.90
39325;DHT22;25037;49.488;9.900;2022-08-19T15:28:47;29.00;47.80
39325;DHT22;25037;49.488;9.900;2022-08-19T15:31:17;29.00;47.50
39325;DHT22;25037;49.488;9.900;2022-08-19T15:33:43;29.00;47.70
39325;DHT22;25037;49.488;9.900;2022-08-19T15:36:09;28.90;47.80
39325;DHT22;25037;49.488;9.900;2022-08-19T15:38:37;28.90;47.80
39325;DHT22;25037;49.488;9.900;2022-08-19T15:41:16;28.80;47.80